sensor_id;sensor_type;location;lat;lon;timestamp;pressure;altitude;pressure_sealevel;temperature;humidity
23899;BME280;20544;50.018;20.010;2023-07-29T00:00:50;98193.42;;;19.43;100.00
23899;BME280;20544;50.018;20.010;2023-07-29T00:04:07;98190.45;;;19.39;100.00
23899;BME280;20544;50.018;20.010;2023-07-29T00:07:24;98193.06;;;19.34;100.00
23899;BME280;20544;50.018;20.010;2023-07-29T00:10:41;98194.65;;;19.30;100.00
23899;BME280;20544;50.018;20.010;2023-07-29T00:13:57;98197.85;;;19.27;100.00
23899;BME280;20544;50.018;20.010;2023-07-29T00:17:14;98200.46;;;19.21;100.00
23899;BME280;20544;50.018;20.010;2023-07-29T00:20:30;98205.78;;;19.16;100.00
23899;BME280;20544;50.018;20.010;2023-07-29T00:23:47;98205.20;;;19.09;100.00
23899;BME280;20544;50.018;20.010;2023-07-29T00:27:06;98205.63;;;19.01;100.00
23899;BME280;20544;50.018;20.010;2023-07-29T00:30:23;98194.42;;;18.87;100.00
23899;BME280;20544;50.018;20.010;2023-07-29T00:33:40;98200.73;;;18.75;100.00
23899;BME280;20544;50.018;20.010;2023-07-29T00:36:56;98192.20;;;18.62;100.00
23899;BME280;20544;50.018;20.010;2023-07-29T00:40:19;98185.34;;;18.49;100.00
23899;BME280;20544;50.018;20.010;2023-07-29T00:43:36;98188.63;;;18.34;100.00
23899;BME280;20544;50.018;20.010;2023-07-29T00:46:53;98190.73;;;18.32;100.00
23899;BME280;20544;50.018;20.010;2023-07-29T00:50:12;98196.53;;;18.23;100.00
23899;BME280;20544;50.018;20.010;2023-07-29T00:53:29;98196.14;;;18.15;100.00
23899;BME280;20544;50.018;20.010;2023-07-29T00:56:47;98195.89;;;17.99;100.00
23899;BME280;20544;50.018;20.010;2023-07-29T01:00:06;98191.14;;;17.89;100.00
23899;BME280;20544;50.018;20.010;2023-07-29T01:03:24;98193.59;;;17.91;100.00
23899;BME280;20544;50.018;20.010;2023-07-29T01:06:46;98201.31;;;17.87;100.00
23899;BME280;20544;50.018;20.010;2023-07-29T01:10:10;98206.35;;;17.84;100.00
23899;BME280;20544;50.018;20.010;2023-07-29T01:13:33;98205.44;;;17.78;100.00
23899;BME280;20544;50.018;20.010;2023-07-29T01:16:52;98199.99;;;17.73;100.00
23899;BME280;20544;50.018;20.010;2023-07-29T01:20:13;98197.95;;;17.63;100.00
23899;BME280;20544;50.018;20.010;2023-07-29T01:23:33;98200.13;;;17.49;100.00
23899;BME280;20544;50.018;20.010;2023-07-29T01:26:50;98205.31;;;17.39;100.00
23899;BME280;20544;50.018;20.010;2023-07-29T01:30:09;98201.72;;;17.33;100.00
23899;BME280;20544;50.018;20.010;2023-07-29T01:33:29;98197.73;;;17.36;100.00
23899;BME280;20544;50.018;20.010;2023-07-29T01:36:48;98197.65;;;17.30;100.00
23899;BME280;20544;50.018;20.010;2023-07-29T01:40:11;98205.75;;;17.19;100.00
23899;BME280;20544;50.018;20.010;2023-07-29T01:43:28;98202.39;;;17.11;100.00
23899;BME280;20544;50.018;20.010;2023-07-29T01:46:47;98210.89;;;17.08;100.00
23899;BME280;20544;50.018;20.010;2023-07-29T01:50:07;98211.14;;;17.07;100.00
23899;BME280;20544;50.018;20.010;2023-07-29T01:53:25;98217.08;;;17.09;100.00
23899;BME280;20544;50.018;20.010;2023-07-29T01:56:41;98207.31;;;17.03;100.00
23899;BME280;20544;50.018;20.010;2023-07-29T02:00:00;98207.31;;;17.03;100.00
23899;BME280;20544;50.018;20.010;2023-07-29T02:03:24;98208.80;;;17.10;100.00
23899;BME280;20544;50.018;20.010;2023-07-29T02:06:41;98209.14;;;17.14;100.00
23899;BME280;20544;50.018;20.010;2023-07-29T02:09:59;98207.05;;;17.16;100.00
23899;BME280;20544;50.018;20.010;2023-07-29T02:13:15;98208.98;;;17.21;100.00
23899;BME280;20544;50.018;20.010;2023-07-29T02:16:32;98203.01;;;17.30;100.00
23899;BME280;20544;50.018;20.010;2023-07-29T02:19:49;98203.44;;;17.39;100.00
23899;BME280;20544;50.018;20.010;2023-07-29T02:23:06;98200.38;;;17.48;100.00
23899;BME280;20544;50.018;20.010;2023-07-29T02:26:23;98207.20;;;17.55;100.00
23899;BME280;20544;50.018;20.010;2023-07-29T02:29:39;98206.16;;;17.56;100.00
23899;BME280;20544;50.018;20.010;2023-07-29T02:32:56;98201.93;;;17.60;100.00
23899;BME280;20544;50.018;20.010;2023-07-29T02:36:14;98212.98;;;17.64;100.00
23899;BME280;20544;50.018;20.010;2023-07-29T02:39:31;98219.02;;;17.71;100.00
23899;BME280;20544;50.018;20.010;2023-07-29T02:42:48;98211.77;;;17.72;100.00
23899;BME280;20544;50.018;20.010;2023-07-29T02:46:12;98212.27;;;17.69;100.00
23899;BME280;20544;50.018;20.010;2023-07-29T02:49:29;98210.25;;;17.76;100.00
23899;BME280;20544;50.018;20.010;2023-07-29T02:52:45;98216.16;;;17.78;100.00
23899;BME280;20544;50.018;20.010;2023-07-29T02:56:02;98219.59;;;17.73;100.00
23899;BME280;20544;50.018;20.010;2023-07-29T02:59:19;98208.88;;;17.73;100.00
23899;BME280;20544;50.018;20.010;2023-07-29T03:02:36;98206.19;;;17.73;100.00
23899;BME280;20544;50.018;20.010;2023-07-29T03:05:58;98210.25;;;17.76;100.00
23899;BME280;20544;50.018;20.010;2023-07-29T03:09:16;98210.59;;;17.79;100.00
23899;BME280;20544;50.018;20.010;2023-07-29T03:12:32;98220.34;;;17.86;100.00
23899;BME280;20544;50.018;20.010;2023-07-29T03:15:49;98227.64;;;17.90;100.00
23899;BME280;20544;50.018;20.010;2023-07-29T03:19:06;98223.83;;;17.86;100.00
23899;BME280;20544;50.018;20.010;2023-07-29T03:22:23;98235.94;;;17.89;100.00
23899;BME280;20544;50.018;20.010;2023-07-29T03:25:40;98240.83;;;17.92;100.00
23899;BME280;20544;50.018;20.010;2023-07-29T03:28:57;98243.18;;;17.88;100.00
23899;BME280;20544;50.018;20.010;2023-07-29T03:32:14;98246.99;;;17.92;100.00
23899;BME280;20544;50.018;20.010;2023-07-29T03:35:30;98246.99;;;17.92;100.00
23899;BME280;20544;50.018;20.010;2023-07-29T03:38:47;98256.20;;;17.97;100.00
23899;BME280;20544;50.018;20.010;2023-07-29T03:42:04;98252.14;;;17.94;100.00
23899;BME280;20544;50.018;20.010;2023-07-29T03:45:21;98250.73;;;17.91;100.00
23899;BME280;20544;50.018;20.010;2023-07-29T03:48:38;98249.92;;;17.91;100.00
23899;BME280;20544;50.018;20.010;2023-07-29T03:51:55;98244.92;;;17.94;100.00
23899;BME280;20544;50.018;20.010;2023-07-29T03:55:12;98245.00;;;18.00;100.00
23899;BME280;20544;50.018;20.010;2023-07-29T03:58:29;98254.98;;;18.04;100.00
23899;BME280;20544;50.018;20.010;2023-07-29T04:01:46;98252.08;;;18.06;100.00
23899;BME280;20544;50.018;20.010;2023-07-29T04:05:04;98249.95;;;18.08;100.00
23899;BME280;20544;50.018;20.010;2023-07-29T04:08:23;98260.20;;;18.11;100.00
23899;BME280;20544;50.018;20.010;2023-07-29T04:11:41;98260.53;;;18.15;100.00
23899;BME280;20544;50.018;20.010;2023-07-29T04:14:58;98253.28;;;18.15;100.00
23899;BME280;20544;50.018;20.010;2023-07-29T04:18:16;98257.52;;;18.11;100.00
23899;BME280;20544;50.018;20.010;2023-07-29T04:21:33;98255.64;;;18.11;100.00
23899;BME280;20544;50.018;20.010;2023-07-29T04:24:50;98256.80;;;18.16;100.00
23899;BME280;20544;50.018;20.010;2023-07-29T04:28:07;98258.18;;;18.18;100.00
23899;BME280;20544;50.018;20.010;2023-07-29T04:31:24;98247.52;;;18.23;100.00
23899;BME280;20544;50.018;20.010;2023-07-29T04:34:41;98260.44;;;18.26;100.00
23899;BME280;20544;50.018;20.010;2023-07-29T04:37:57;98262.24;;;18.21;100.00
23899;BME280;20544;50.018;20.010;2023-07-29T04:41:14;98269.24;;;18.22;100.00
23899;BME280;20544;50.018;20.010;2023-07-29T04:44:31;98270.45;;;18.31;100.00
23899;BME280;20544;50.018;20.010;2023-07-29T04:47:48;98273.78;;;18.38;100.00
23899;BME280;20544;50.018;20.010;2023-07-29T04:51:05;98278.42;;;18.43;100.00
23899;BME280;20544;50.018;20.010;2023-07-29T04:54:22;98278.82;;;18.52;100.00
23899;BME280;20544;50.018;20.010;2023-07-29T04:57:39;98279.95;;;18.56;100.00
23899;BME280;20544;50.018;20.010;2023-07-29T05:00:55;98285.64;;;18.59;100.00
23899;BME280;20544;50.018;20.010;2023-07-29T05:04:13;98286.03;;;18.68;100.00
23899;BME280;20544;50.018;20.010;2023-07-29T05:07:30;98281.63;;;18.79;100.00
23899;BME280;20544;50.018;20.010;2023-07-29T05:10:50;98294.61;;;18.87;100.00
23899;BME280;20544;50.018;20.010;2023-07-29T05:14:08;98298.45;;;18.91;100.00
23899;BME280;20544;50.018;20.010;2023-07-29T05:17:25;98289.97;;;19.00;100.00
23899;BME280;20544;50.018;20.010;2023-07-29T05:20:42;98290.19;;;19.15;100.00
23899;BME280;20544;50.018;20.010;2023-07-29T05:24:01;98292.53;;;19.34;100.00
23899;BME280;20544;50.018;20.010;2023-07-29T05:27:18;98299.95;;;19.49;100.00
23899;BME280;20544;50.018;20.010;2023-07-29T05:30:35;98302.78;;;19.59;100.00
23899;BME280;20544;50.018;20.010;2023-07-29T05:33:52;98300.50;;;19.73;100.00
23899;BME280;20544;50.018;20.010;2023-07-29T05:37:09;98308.52;;;19.90;100.00
23899;BME280;20544;50.018;20.010;2023-07-29T05:40:26;98304.06;;;20.06;100.00
23899;BME280;20544;50.018;20.010;2023-07-29T05:43:43;98301.52;;;20.22;100.00
23899;BME280;20544;50.018;20.010;2023-07-29T05:46:59;98297.38;;;20.41;100.00
23899;BME280;20544;50.018;20.010;2023-07-29T05:50:17;98307.44;;;20.56;100.00
23899;BME280;20544;50.018;20.010;2023-07-29T05:53:33;98300.22;;;20.67;100.00
23899;BME280;20544;50.018;20.010;2023-07-29T05:57:11;98308.92;;;20.74;100.00
23899;BME280;20544;50.018;20.010;2023-07-29T06:00:53;98311.14;;;20.82;100.00
23899;BME280;20544;50.018;20.010;2023-07-29T06:04:09;98316.55;;;20.88;100.00
23899;BME280;20544;50.018;20.010;2023-07-29T06:07:29;98325.76;;;20.97;100.00
23899;BME280;20544;50.018;20.010;2023-07-29T06:10:51;98323.94;;;21.08;100.00
23899;BME280;20544;50.018;20.010;2023-07-29T06:14:07;98328.86;;;21.21;100.00
23899;BME280;20544;50.018;20.010;2023-07-29T06:17:24;98325.66;;;21.34;100.00
23899;BME280;20544;50.018;20.010;2023-07-29T06:20:41;98337.88;;;21.53;100.00
23899;BME280;20544;50.018;20.010;2023-07-29T06:23:57;98331.20;;;21.71;100.00
23899;BME280;20544;50.018;20.010;2023-07-29T06:27:16;98340.71;;;21.89;100.00
23899;BME280;20544;50.018;20.010;2023-07-29T06:30:35;98335.88;;;22.01;100.00
23899;BME280;20544;50.018;20.010;2023-07-29T06:33:52;98334.53;;;22.14;100.00
23899;BME280;20544;50.018;20.010;2023-07-29T06:37:08;98336.16;;;22.25;100.00
23899;BME280;20544;50.018;20.010;2023-07-29T06:40:25;98335.38;;;22.40;100.00
23899;BME280;20544;50.018;20.010;2023-07-29T06:43:41;98327.81;;;22.48;100.00
23899;BME280;20544;50.018;20.010;2023-07-29T06:46:59;98329.42;;;22.59;100.00
23899;BME280;20544;50.018;20.010;2023-07-29T06:50:16;98338.87;;;22.67;100.00
23899;BME280;20544;50.018;20.010;2023-07-29T06:53:33;98350.48;;;22.77;100.00
23899;BME280;20544;50.018;20.010;2023-07-29T06:56:49;98339.12;;;22.91;100.00
23899;BME280;20544;50.018;20.010;2023-07-29T07:00:08;98342.35;;;22.98;100.00
23899;BME280;20544;50.018;20.010;2023-07-29T07:03:24;98341.52;;;23.08;100.00
23899;BME280;20544;50.018;20.010;2023-07-29T07:06:42;98339.06;;;23.22;100.00
23899;BME280;20544;50.018;20.010;2023-07-29T07:10:02;98340.63;;;23.38;100.00
23899;BME280;20544;50.018;20.010;2023-07-29T07:13:19;98340.31;;;23.50;100.00
23899;BME280;20544;50.018;20.010;2023-07-29T07:16:36;98332.64;;;23.63;100.00
23899;BME280;20544;50.018;20.010;2023-07-29T07:19:52;98333.19;;;23.65;100.00
23899;BME280;20544;50.018;20.010;2023-07-29T07:23:09;98339.91;;;23.72;100.00
23899;BME280;20544;50.018;20.010;2023-07-29T07:26:25;98336.88;;;23.84;100.00
23899;BME280;20544;50.018;20.010;2023-07-29T07:29:42;98329.77;;;23.99;100.00
23899;BME280;20544;50.018;20.010;2023-07-29T07:32:59;98336.75;;;24.10;100.00
23899;BME280;20544;50.018;20.010;2023-07-29T07:36:20;98344.50;;;24.22;100.00
23899;BME280;20544;50.018;20.010;2023-07-29T07:39:36;98339.69;;;24.48;100.00
23899;BME280;20544;50.018;20.010;2023-07-29T07:42:53;98342.93;;;24.50;100.00
23899;BME280;20544;50.018;20.010;2023-07-29T07:46:09;98344.21;;;24.58;100.00
23899;BME280;20544;50.018;20.010;2023-07-29T07:49:26;98341.11;;;24.75;100.00
23899;BME280;20544;50.018;20.010;2023-07-29T07:52:45;98348.58;;;25.13;100.00
23899;BME280;20544;50.018;20.010;2023-07-29T07:56:01;98346.02;;;25.70;100.00
23899;BME280;20544;50.018;20.010;2023-07-29T07:59:18;98341.17;;;26.24;100.00
23899;BME280;20544;50.018;20.010;2023-07-29T08:02:34;98347.01;;;26.84;100.00
23899;BME280;20544;50.018;20.010;2023-07-29T08:05:51;98344.61;;;27.24;100.00
23899;BME280;20544;50.018;20.010;2023-07-29T08:09:08;98345.14;;;27.40;100.00
23899;BME280;20544;50.018;20.010;2023-07-29T08:12:27;98349.74;;;27.11;100.00
23899;BME280;20544;50.018;20.010;2023-07-29T08:15:49;98353.98;;;27.04;100.00
23899;BME280;20544;50.018;20.010;2023-07-29T08:19:06;98349.45;;;27.55;100.00
23899;BME280;20544;50.018;20.010;2023-07-29T08:22:23;98347.25;;;27.93;100.00
23899;BME280;20544;50.018;20.010;2023-07-29T08:25:39;98352.08;;;28.33;100.00
23899;BME280;20544;50.018;20.010;2023-07-29T08:28:56;98349.97;;;28.53;100.00
23899;BME280;20544;50.018;20.010;2023-07-29T08:32:12;98358.10;;;29.30;100.00
23899;BME280;20544;50.018;20.010;2023-07-29T08:35:29;98360.10;;;29.73;100.00
23899;BME280;20544;50.018;20.010;2023-07-29T08:38:45;98355.66;;;30.30;100.00
23899;BME280;20544;50.018;20.010;2023-07-29T08:42:04;98346.97;;;30.19;100.00
23899;BME280;20544;50.018;20.010;2023-07-29T08:45:22;98355.97;;;30.55;100.00
23899;BME280;20544;50.018;20.010;2023-07-29T08:48:42;98353.65;;;30.83;100.00
23899;BME280;20544;50.018;20.010;2023-07-29T08:51:59;98350.70;;;30.97;100.00
23899;BME280;20544;50.018;20.010;2023-07-29T08:55:16;98350.65;;;31.14;100.00
23899;BME280;20544;50.018;20.010;2023-07-29T08:58:33;98347.66;;;31.58;100.00
23899;BME280;20544;50.018;20.010;2023-07-29T09:01:51;98341.81;;;31.39;100.00
23899;BME280;20544;50.018;20.010;2023-07-29T09:05:10;98347.63;;;31.37;100.00
23899;BME280;20544;50.018;20.010;2023-07-29T09:08:28;98343.63;;;31.86;100.00
23899;BME280;20544;50.018;20.010;2023-07-29T09:11:45;98335.82;;;31.75;100.00
23899;BME280;20544;50.018;20.010;2023-07-29T09:15:01;98332.09;;;32.35;100.00
23899;BME280;20544;50.018;20.010;2023-07-29T09:18:20;98332.05;;;32.01;100.00
23899;BME280;20544;50.018;20.010;2023-07-29T09:21:39;98323.42;;;32.33;100.00
23899;BME280;20544;50.018;20.010;2023-07-29T09:24:58;98332.60;;;31.73;100.00
23899;BME280;20544;50.018;20.010;2023-07-29T09:28:16;98320.09;;;31.34;100.00
23899;BME280;20544;50.018;20.010;2023-07-29T09:31:33;98320.34;;;31.20;100.00
23899;BME280;20544;50.018;20.010;2023-07-29T09:34:49;98314.52;;;30.82;100.00
23899;BME280;20544;50.018;20.010;2023-07-29T09:38:06;98323.77;;;30.43;100.00
23899;BME280;20544;50.018;20.010;2023-07-29T09:41:27;98313.03;;;30.29;100.00
23899;BME280;20544;50.018;20.010;2023-07-29T09:44:45;98312.25;;;30.20;100.00
23899;BME280;20544;50.018;20.010;2023-07-29T09:48:06;98315.77;;;30.29;100.00
23899;BME280;20544;50.018;20.010;2023-07-29T09:55:36;98307.66;;;30.68;100.00
23899;BME280;20544;50.018;20.010;2023-07-29T09:58:53;98311.20;;;30.68;100.00
23899;BME280;20544;50.018;20.010;2023-07-29T10:02:15;98306.89;;;30.58;100.00
23899;BME280;20544;50.018;20.010;2023-07-29T10:05:34;98300.27;;;30.68;100.00
23899;BME280;20544;50.018;20.010;2023-07-29T10:08:52;98294.67;;;30.56;100.00
23899;BME280;20544;50.018;20.010;2023-07-29T10:12:13;98298.53;;;30.55;100.00
23899;BME280;20544;50.018;20.010;2023-07-29T10:15:30;98290.22;;;29.81;100.00
23899;BME280;20544;50.018;20.010;2023-07-29T10:18:48;98290.22;;;29.05;100.00
23899;BME280;20544;50.018;20.010;2023-07-29T10:22:06;98294.05;;;28.64;100.00
23899;BME280;20544;50.018;20.010;2023-07-29T10:25:24;98295.20;;;28.40;100.00
23899;BME280;20544;50.018;20.010;2023-07-29T10:28:48;98295.28;;;28.27;100.00
23899;BME280;20544;50.018;20.010;2023-07-29T10:32:05;98293.78;;;27.98;100.00
23899;BME280;20544;50.018;20.010;2023-07-29T10:35:26;98288.84;;;27.63;100.00
23899;BME280;20544;50.018;20.010;2023-07-29T10:38:42;98294.31;;;27.21;100.00
23899;BME280;20544;50.018;20.010;2023-07-29T10:42:05;98291.91;;;27.20;100.00
23899;BME280;20544;50.018;20.010;2023-07-29T10:45:23;98291.20;;;26.86;100.00
23899;BME280;20544;50.018;20.010;2023-07-29T10:48:52;98289.79;;;26.75;100.00
23899;BME280;20544;50.018;20.010;2023-07-29T10:52:14;98294.75;;;26.87;100.00
23899;BME280;20544;50.018;20.010;2023-07-29T10:55:34;98288.41;;;26.44;100.00
23899;BME280;20544;50.018;20.010;2023-07-29T10:58:51;98284.89;;;26.58;100.00
23899;BME280;20544;50.018;20.010;2023-07-29T11:02:14;98270.16;;;27.06;100.00
23899;BME280;20544;50.018;20.010;2023-07-29T11:05:52;98267.50;;;27.42;100.00
23899;BME280;20544;50.018;20.010;2023-07-29T11:12:55;98256.50;;;27.84;100.00
23899;BME280;20544;50.018;20.010;2023-07-29T11:16:15;98262.42;;;27.86;100.00
23899;BME280;20544;50.018;20.010;2023-07-29T11:19:32;98256.88;;;27.91;100.00
23899;BME280;20544;50.018;20.010;2023-07-29T11:22:49;98257.35;;;27.93;100.00
23899;BME280;20544;50.018;20.010;2023-07-29T11:26:08;98252.47;;;27.82;100.00
23899;BME280;20544;50.018;20.010;2023-07-29T11:29:26;98258.11;;;27.85;100.00
23899;BME280;20544;50.018;20.010;2023-07-29T11:32:46;98245.32;;;27.49;100.00
23899;BME280;20544;50.018;20.010;2023-07-29T11:36:03;98247.86;;;27.32;100.00
23899;BME280;20544;50.018;20.010;2023-07-29T11:39:20;98249.71;;;26.94;100.00
23899;BME280;20544;50.018;20.010;2023-07-29T11:42:36;98241.91;;;26.46;100.00
23899;BME280;20544;50.018;20.010;2023-07-29T11:45:54;98248.75;;;26.10;100.00
23899;BME280;20544;50.018;20.010;2023-07-29T11:49:12;98252.01;;;25.93;100.00
23899;BME280;20544;50.018;20.010;2023-07-29T11:52:33;98253.33;;;25.77;100.00
23899;BME280;20544;50.018;20.010;2023-07-29T11:55:53;98247.80;;;26.01;100.00
23899;BME280;20544;50.018;20.010;2023-07-29T11:59:10;98250.19;;;26.22;100.00
23899;BME280;20544;50.018;20.010;2023-07-29T12:02:27;98258.19;;;26.32;100.00
23899;BME280;20544;50.018;20.010;2023-07-29T12:05:45;98253.94;;;26.26;100.00
23899;BME280;20544;50.018;20.010;2023-07-29T12:09:02;98265.03;;;26.29;100.00
23899;BME280;20544;50.018;20.010;2023-07-29T12:12:18;98242.04;;;26.22;100.00
23899;BME280;20544;50.018;20.010;2023-07-29T12:15:37;98240.30;;;26.12;100.00
23899;BME280;20544;50.018;20.010;2023-07-29T12:18:54;98235.08;;;26.15;100.00
23899;BME280;20544;50.018;20.010;2023-07-29T12:22:17;98235.30;;;26.19;100.00
23899;BME280;20544;50.018;20.010;2023-07-29T12:25:34;98235.38;;;26.14;100.00
23899;BME280;20544;50.018;20.010;2023-07-29T12:28:51;98239.95;;;25.99;100.00
23899;BME280;20544;50.018;20.010;2023-07-29T12:32:16;98239.34;;;26.03;100.00
23899;BME280;20544;50.018;20.010;2023-07-29T12:35:39;98221.49;;;26.15;100.00
23899;BME280;20544;50.018;20.010;2023-07-29T12:39:00;98218.83;;;26.29;100.00
23899;BME280;20544;50.018;20.010;2023-07-29T12:42:18;98222.05;;;26.45;100.00
23899;BME280;20544;50.018;20.010;2023-07-29T12:45:38;98225.49;;;26.51;100.00
23899;BME280;20544;50.018;20.010;2023-07-29T12:48:55;98221.27;;;26.59;100.00
23899;BME280;20544;50.018;20.010;2023-07-29T12:52:12;98213.83;;;26.64;100.00
23899;BME280;20544;50.018;20.010;2023-07-29T12:55:31;98208.88;;;26.67;100.00
23899;BME280;20544;50.018;20.010;2023-07-29T12:58:48;98201.74;;;26.71;100.00
23899;BME280;20544;50.018;20.010;2023-07-29T13:02:11;98205.56;;;26.70;100.00
23899;BME280;20544;50.018;20.010;2023-07-29T13:05:27;98209.39;;;26.69;100.00
23899;BME280;20544;50.018;20.010;2023-07-29T13:08:44;98199.61;;;26.68;100.00
23899;BME280;20544;50.018;20.010;2023-07-29T13:12:01;98202.33;;;26.68;100.00
23899;BME280;20544;50.018;20.010;2023-07-29T13:15:17;98197.52;;;26.64;100.00
23899;BME280;20544;50.018;20.010;2023-07-29T13:18:34;98198.52;;;26.69;100.00
23899;BME280;20544;50.018;20.010;2023-07-29T13:21:50;98192.17;;;26.73;100.00
23899;BME280;20544;50.018;20.010;2023-07-29T13:25:08;98186.22;;;26.71;100.00
23899;BME280;20544;50.018;20.010;2023-07-29T13:28:25;98179.59;;;26.63;100.00
23899;BME280;20544;50.018;20.010;2023-07-29T13:31:41;98172.64;;;26.57;100.00
23899;BME280;20544;50.018;20.010;2023-07-29T13:35:00;98174.05;;;26.55;100.00
23899;BME280;20544;50.018;20.010;2023-07-29T13:38:20;98166.20;;;26.53;100.00
23899;BME280;20544;50.018;20.010;2023-07-29T13:41:42;98178.97;;;26.39;100.00
23899;BME280;20544;50.018;20.010;2023-07-29T13:44:58;98175.42;;;26.24;100.00
23899;BME280;20544;50.018;20.010;2023-07-29T13:48:16;98180.53;;;26.12;100.00
23899;BME280;20544;50.018;20.010;2023-07-29T13:51:32;98179.59;;;26.03;100.00
23899;BME280;20544;50.018;20.010;2023-07-29T13:54:49;98180.11;;;26.05;100.00
23899;BME280;20544;50.018;20.010;2023-07-29T13:58:05;98174.66;;;25.91;100.00
23899;BME280;20544;50.018;20.010;2023-07-29T14:01:22;98195.13;;;25.83;100.00
23899;BME280;20544;50.018;20.010;2023-07-29T14:04:38;98188.08;;;25.82;100.00
23899;BME280;20544;50.018;20.010;2023-07-29T14:07:55;98178.27;;;25.67;100.00
23899;BME280;20544;50.018;20.010;2023-07-29T14:11:14;98176.90;;;25.70;100.00
23899;BME280;20544;50.018;20.010;2023-07-29T14:14:30;98181.81;;;25.67;100.00
23899;BME280;20544;50.018;20.010;2023-07-29T14:17:47;98180.05;;;25.58;100.00
23899;BME280;20544;50.018;20.010;2023-07-29T14:21:06;98176.11;;;25.50;100.00
23899;BME280;20544;50.018;20.010;2023-07-29T14:24:22;98170.59;;;25.36;100.00
23899;BME280;20544;50.018;20.010;2023-07-29T14:27:39;98170.72;;;25.26;100.00
23899;BME280;20544;50.018;20.010;2023-07-29T14:30:58;98185.08;;;25.07;100.00
23899;BME280;20544;50.018;20.010;2023-07-29T14:34:15;98183.45;;;24.87;100.00
23899;BME280;20544;50.018;20.010;2023-07-29T14:37:39;98182.33;;;24.69;100.00
23899;BME280;20544;50.018;20.010;2023-07-29T14:41:03;98170.36;;;24.46;100.00
23899;BME280;20544;50.018;20.010;2023-07-29T14:44:56;98172.77;;;24.23;100.00
23899;BME280;20544;50.018;20.010;2023-07-29T14:54:50;98189.20;;;23.68;100.00
23899;BME280;20544;50.018;20.010;2023-07-29T14:58:22;98187.17;;;23.49;100.00
23899;BME280;20544;50.018;20.010;2023-07-29T15:01:40;98176.65;;;23.42;100.00
23899;BME280;20544;50.018;20.010;2023-07-29T15:04:56;98167.98;;;23.46;100.00
23899;BME280;20544;50.018;20.010;2023-07-29T15:08:13;98170.44;;;23.42;100.00
23899;BME280;20544;50.018;20.010;2023-07-29T15:11:31;98170.48;;;23.37;100.00
23899;BME280;20544;50.018;20.010;2023-07-29T15:14:48;98170.48;;;23.37;100.00
23899;BME280;20544;50.018;20.010;2023-07-29T15:18:05;98168.07;;;23.30;100.00
23899;BME280;20544;50.018;20.010;2023-07-29T15:21:23;98180.00;;;23.29;100.00
23899;BME280;20544;50.018;20.010;2023-07-29T15:24:39;98175.71;;;23.23;100.00
23899;BME280;20544;50.018;20.010;2023-07-29T15:27:56;98169.80;;;23.16;100.00
23899;BME280;20544;50.018;20.010;2023-07-29T15:31:14;98170.85;;;23.15;100.00
23899;BME280;20544;50.018;20.010;2023-07-29T15:34:34;98176.00;;;23.16;100.00
23899;BME280;20544;50.018;20.010;2023-07-29T15:37:50;98180.61;;;23.16;100.00
23899;BME280;20544;50.018;20.010;2023-07-29T15:41:09;98172.80;;;23.04;100.00
23899;BME280;20544;50.018;20.010;2023-07-29T15:44:27;98173.30;;;23.16;100.00
23899;BME280;20544;50.018;20.010;2023-07-29T15:47:43;98177.69;;;23.02;100.00
23899;BME280;20544;50.018;20.010;2023-07-29T15:51:00;98180.42;;;22.91;100.00
23899;BME280;20544;50.018;20.010;2023-07-29T15:57:31;98169.38;;;22.83;100.00
23899;BME280;20544;50.018;20.010;2023-07-29T16:00:47;98146.73;;;22.73;100.00
23899;BME280;20544;50.018;20.010;2023-07-29T16:04:03;98158.09;;;22.75;100.00
23899;BME280;20544;50.018;20.010;2023-07-29T16:07:20;98148.84;;;22.82;100.00
23899;BME280;20544;50.018;20.010;2023-07-29T16:10:36;98149.95;;;22.81;100.00
23899;BME280;20544;50.018;20.010;2023-07-29T16:13:53;98152.39;;;22.77;100.00
23899;BME280;20544;50.018;20.010;2023-07-29T16:17:09;98144.80;;;22.84;100.00
23899;BME280;20544;50.018;20.010;2023-07-29T16:20:26;98139.11;;;22.86;100.00
23899;BME280;20544;50.018;20.010;2023-07-29T16:23:42;98139.65;;;22.83;100.00
23899;BME280;20544;50.018;20.010;2023-07-29T16:27:00;98133.42;;;22.87;100.00
23899;BME280;20544;50.018;20.010;2023-07-29T16:30:17;98145.85;;;22.88;100.00
23899;BME280;20544;50.018;20.010;2023-07-29T16:33:33;98139.39;;;22.84;100.00
23899;BME280;20544;50.018;20.010;2023-07-29T16:36:50;98140.98;;;22.85;100.00
23899;BME280;20544;50.018;20.010;2023-07-29T16:40:08;98142.09;;;22.84;100.00
23899;BME280;20544;50.018;20.010;2023-07-29T16:43:25;98138.59;;;22.78;100.00
23899;BME280;20544;50.018;20.010;2023-07-29T16:46:43;98135.38;;;22.71;100.00
23899;BME280;20544;50.018;20.010;2023-07-29T16:50:00;98130.23;;;22.75;100.00
23899;BME280;20544;50.018;20.010;2023-07-29T16:53:18;98128.64;;;22.69;100.00
23899;BME280;20544;50.018;20.010;2023-07-29T16:56:35;98129.46;;;22.64;100.00
23899;BME280;20544;50.018;20.010;2023-07-29T16:59:51;98111.68;;;22.53;100.00
23899;BME280;20544;50.018;20.010;2023-07-29T17:03:07;98109.83;;;22.48;100.00
23899;BME280;20544;50.018;20.010;2023-07-29T17:06:29;98104.41;;;22.53;100.00
23899;BME280;20544;50.018;20.010;2023-07-29T17:09:47;98098.79;;;22.39;100.00
23899;BME280;20544;50.018;20.010;2023-07-29T17:13:12;98097.97;;;22.39;100.00
23899;BME280;20544;50.018;20.010;2023-07-29T17:16:29;98093.09;;;22.30;100.00
23899;BME280;20544;50.018;20.010;2023-07-29T17:19:54;98090.67;;;22.29;100.00